sensor_id;sensor_type;location;lat;lon;timestamp;pressure;altitude;pressure_sealevel;temperature;humidity
31337;BME280;22846;42.654;23.314;2022-08-03T00:01:02;94539.63;;;27.25;38.91
31337;BME280;22846;42.654;23.314;2022-08-03T00:03:27;94538.88;;;27.25;39.29
31337;BME280;22846;42.654;23.314;2022-08-03T00:05:53;94542.06;;;27.23;39.06
31337;BME280;22846;42.654;23.314;2022-08-03T00:08:19;94540.53;;;27.22;39.15
31337;BME280;22846;42.654;23.314;2022-08-03T00:10:45;94534.00;;;27.20;39.15
31337;BME280;22846;42.654;23.314;2022-08-03T00:13:10;94544.06;;;27.23;39.20
31337;BME280;22846;42.654;23.314;2022-08-03T00:15:39;94539.03;;;27.21;38.97
31337;BME280;22846;42.654;23.314;2022-08-03T00:18:05;94540.25;;;27.20;39.34
31337;BME280;22846;42.654;23.314;2022-08-03T00:20:30;94535.66;;;27.17;39.43
31337;BME280;22846;42.654;23.314;2022-08-03T00:22:56;94533.69;;;27.18;39.39
31337;BME280;22846;42.654;23.314;2022-08-03T00:25:21;94534.94;;;27.17;39.33
31337;BME280;22846;42.654;23.314;2022-08-03T00:27:47;94536.88;;;27.16;39.37
31337;BME280;22846;42.654;23.314;2022-08-03T00:30:12;94544.38;;;27.16;39.28
31337;BME280;22846;42.654;23.314;2022-08-03T00:32:37;94536.56;;;27.14;39.50
31337;BME280;22846;42.654;23.314;2022-08-03T00:35:03;94535.81;;;27.14;39.66
31337;BME280;22846;42.654;23.314;2022-08-03T00:37:29;94532.78;;;27.12;39.35
31337;BME280;22846;42.654;23.314;2022-08-03T00:39:54;94543.00;;;27.11;39.46
31337;BME280;22846;42.654;23.314;2022-08-03T00:42:19;94533.25;;;27.10;39.19
31337;BME280;22846;42.654;23.314;2022-08-03T00:44:45;94532.94;;;27.08;39.12
31337;BME280;22846;42.654;23.314;2022-08-03T00:47:11;94539.31;;;27.05;38.59
31337;BME280;22846;42.654;23.314;2022-08-03T00:49:38;94539.31;;;27.05;38.59
31337;BME280;22846;42.654;23.314;2022-08-03T00:52:03;94534.28;;;27.04;38.60
31337;BME280;22846;42.654;23.314;2022-08-03T00:54:30;94537.03;;;27.04;38.83
31337;BME280;22846;42.654;23.314;2022-08-03T00:56:56;94529.28;;;27.02;39.17
31337;BME280;22846;42.654;23.314;2022-08-03T00:59:21;94529.72;;;27.01;39.17
31337;BME280;22846;42.654;23.314;2022-08-03T01:01:47;94530.94;;;27.00;38.60
31337;BME280;22846;42.654;23.314;2022-08-03T01:04:12;94528.63;;;26.98;38.91
31337;BME280;22846;42.654;23.314;2022-08-03T01:07:02;94532.28;;;26.95;38.70
31337;BME280;22846;42.654;23.314;2022-08-03T01:09:54;94522.53;;;26.94;38.91
31337;BME280;22846;42.654;23.314;2022-08-03T01:18:03;94519.47;;;26.92;39.32
31337;BME280;22846;42.654;23.314;2022-08-03T01:20:34;94524.19;;;26.92;39.30
31337;BME280;22846;42.654;23.314;2022-08-03T01:31:18;94517.31;;;26.87;39.06
31337;BME280;22846;42.654;23.314;2022-08-03T01:33:47;94524.19;;;26.92;39.10
31337;BME280;22846;42.654;23.314;2022-08-03T01:36:23;94519.78;;;26.85;39.33
31337;BME280;22846;42.654;23.314;2022-08-03T01:38:54;94520.22;;;26.84;39.37
31337;BME280;22846;42.654;23.314;2022-08-03T01:41:35;94523.44;;;26.82;39.46
31337;BME280;22846;42.654;23.314;2022-08-03T01:44:02;94521.44;;;26.83;39.41
31337;BME280;22846;42.654;23.314;2022-08-03T01:46:30;94523.88;;;26.81;39.52
31337;BME280;22846;42.654;23.314;2022-08-03T01:48:57;94534.53;;;26.79;39.38
31337;BME280;22846;42.654;23.314;2022-08-03T01:51:23;94529.06;;;26.79;39.25
31337;BME280;22846;42.654;23.314;2022-08-03T01:53:50;94536.53;;;26.78;39.30
31337;BME280;22846;42.654;23.314;2022-08-03T01:56:19;94530.75;;;26.76;38.95
31337;BME280;22846;42.654;23.314;2022-08-03T01:58:48;94529.34;;;26.72;39.25
31337;BME280;22846;42.654;23.314;2022-08-03T02:01:15;94534.53;;;26.70;39.44
31337;BME280;22846;42.654;23.314;2022-08-03T02:03:42;94531.47;;;26.68;39.55
31337;BME280;22846;42.654;23.314;2022-08-03T02:06:10;94529.94;;;26.67;39.81
31337;BME280;22846;42.654;23.314;2022-08-03T02:08:38;94525.38;;;26.64;39.94
31337;BME280;22846;42.654;23.314;2022-08-03T02:11:04;94530.09;;;26.63;39.99
31337;BME280;22846;42.654;23.314;2022-08-03T02:13:32;94527.81;;;26.62;40.03
31337;BME280;22846;42.654;23.314;2022-08-03T02:15:58;94524.44;;;26.58;39.82
31337;BME280;22846;42.654;23.314;2022-08-03T02:18:25;94520.50;;;26.59;39.79
31337;BME280;22846;42.654;23.314;2022-08-03T02:20:51;94531.44;;;26.59;39.93
31337;BME280;22846;42.654;23.314;2022-08-03T02:23:17;94523.69;;;26.57;40.05
31337;BME280;22846;42.654;23.314;2022-08-03T02:25:46;94524.91;;;26.56;40.11
31337;BME280;22846;42.654;23.314;2022-08-03T02:28:18;94520.63;;;26.55;39.99
31337;BME280;22846;42.654;23.314;2022-08-03T02:30:45;94520.63;;;26.55;40.29
31337;BME280;22846;42.654;23.314;2022-08-03T02:33:22;94531.59;;;26.55;40.38
31337;BME280;22846;42.654;23.314;2022-08-03T02:35:50;94521.09;;;26.54;40.42
31337;BME280;22846;42.654;23.314;2022-08-03T02:38:18;94514.09;;;26.53;40.42
31337;BME280;22846;42.654;23.314;2022-08-03T02:40:44;94516.03;;;26.52;40.52
31337;BME280;22846;42.654;23.314;2022-08-03T02:43:14;94516.81;;;26.53;40.20
31337;BME280;22846;42.654;23.314;2022-08-03T02:45:44;94511.97;;;26.48;40.45
31337;BME280;22846;42.654;23.314;2022-08-03T02:48:12;94515.75;;;26.50;40.27
31337;BME280;22846;42.654;23.314;2022-08-03T02:50:41;94515.44;;;26.48;40.25
31337;BME280;22846;42.654;23.314;2022-08-03T02:53:09;94522.13;;;26.48;40.41
31337;BME280;22846;42.654;23.314;2022-08-03T02:55:36;94517.88;;;26.47;40.06
31337;BME280;22846;42.654;23.314;2022-08-03T02:58:03;94519.84;;;26.46;40.29
31337;BME280;22846;42.654;23.314;2022-08-03T03:00:30;94517.56;;;26.45;40.43
31337;BME280;22846;42.654;23.314;2022-08-03T03:02:58;94518.16;;;26.40;40.22
31337;BME280;22846;42.654;23.314;2022-08-03T03:05:24;94526.69;;;26.42;40.44
31337;BME280;22846;42.654;23.314;2022-08-03T03:07:50;94526.69;;;26.42;40.19
31337;BME280;22846;42.654;23.314;2022-08-03T03:10:16;94526.22;;;26.43;40.25
31337;BME280;22846;42.654;23.314;2022-08-03T03:12:42;94527.13;;;26.40;40.48
31337;BME280;22846;42.654;23.314;2022-08-03T03:15:09;94534.59;;;26.40;40.71
31337;BME280;22846;42.654;23.314;2022-08-03T03:17:36;94544.34;;;26.41;40.53
31337;BME280;22846;42.654;23.314;2022-08-03T03:20:03;94550.59;;;26.41;40.54
31337;BME280;22846;42.654;23.314;2022-08-03T03:22:32;94553.78;;;26.40;40.43
31337;BME280;22846;42.654;23.314;2022-08-03T03:24:58;94545.34;;;26.34;40.75
31337;BME280;22846;42.654;23.314;2022-08-03T03:27:24;94557.38;;;26.37;40.75
31337;BME280;22846;42.654;23.314;2022-08-03T03:29:50;94559.84;;;26.35;40.95
31337;BME280;22846;42.654;23.314;2022-08-03T03:32:15;94561.81;;;26.34;40.92
31337;BME280;22846;42.654;23.314;2022-08-03T03:34:41;94553.72;;;26.31;41.12
31337;BME280;22846;42.654;23.314;2022-08-03T03:37:07;94559.84;;;26.35;40.72
31337;BME280;22846;42.654;23.314;2022-08-03T03:39:33;94560.25;;;26.33;40.62
31337;BME280;22846;42.654;23.314;2022-08-03T03:42:01;94550.66;;;26.29;40.83
31337;BME280;22846;42.654;23.314;2022-08-03T03:44:27;94558.75;;;26.32;40.64
31337;BME280;22846;42.654;23.314;2022-08-03T03:46:57;94562.69;;;26.31;40.89
31337;BME280;22846;42.654;23.314;2022-08-03T03:49:22;94562.69;;;26.31;41.25
31337;BME280;22846;42.654;23.314;2022-08-03T03:51:51;94566.97;;;26.32;41.22
31337;BME280;22846;42.654;23.314;2022-08-03T03:54:17;94566.97;;;26.32;41.12
31337;BME280;22846;42.654;23.314;2022-08-03T03:56:42;94569.69;;;26.32;41.13
31337;BME280;22846;42.654;23.314;2022-08-03T03:59:07;94564.53;;;26.34;40.90
31337;BME280;22846;42.654;23.314;2022-08-03T04:01:33;94568.06;;;26.35;40.76
31337;BME280;22846;42.654;23.314;2022-08-03T04:03:58;94567.28;;;26.34;40.96
31337;BME280;22846;42.654;23.314;2022-08-03T04:06:44;94564.41;;;26.38;40.90
31337;BME280;22846;42.654;23.314;2022-08-03T04:09:30;94563.56;;;26.49;41.23
31337;BME280;22846;42.654;23.314;2022-08-03T04:12:16;94561.03;;;26.64;40.83
31337;BME280;22846;42.654;23.314;2022-08-03T04:14:43;94554.19;;;26.77;41.89
31337;BME280;22846;42.654;23.314;2022-08-03T04:17:11;94561.09;;;26.91;42.66
31337;BME280;22846;42.654;23.314;2022-08-03T04:19:48;94562.19;;;27.02;42.98
31337;BME280;22846;42.654;23.314;2022-08-03T04:22:17;94557.94;;;27.10;41.47
31337;BME280;22846;42.654;23.314;2022-08-03T04:24:47;94561.72;;;27.13;40.95
31337;BME280;22846;42.654;23.314;2022-08-03T04:27:18;94559.59;;;27.08;40.82
31337;BME280;22846;42.654;23.314;2022-08-03T04:29:47;94570.44;;;27.11;40.80
31337;BME280;22846;42.654;23.314;2022-08-03T04:32:13;94558.09;;;27.07;40.57
31337;BME280;22846;42.654;23.314;2022-08-03T04:34:40;94568.91;;;27.10;40.48
31337;BME280;22846;42.654;23.314;2022-08-03T04:37:10;94569.06;;;27.07;40.90
31337;BME280;22846;42.654;23.314;2022-08-03T04:39:37;94569.81;;;27.07;40.65
31337;BME280;22846;42.654;23.314;2022-08-03T04:42:06;94569.81;;;27.07;40.53
31337;BME280;22846;42.654;23.314;2022-08-03T04:44:36;94572.88;;;27.09;40.71
31337;BME280;22846;42.654;23.314;2022-08-03T04:47:02;94586.13;;;27.11;41.11
31337;BME280;22846;42.654;23.314;2022-08-03T04:49:28;94574.25;;;27.14;41.47
31337;BME280;22846;42.654;23.314;2022-08-03T04:51:54;94578.84;;;27.26;41.67
31337;BME280;22846;42.654;23.314;2022-08-03T04:54:20;94582.78;;;27.33;41.45
31337;BME280;22846;42.654;23.314;2022-08-03T04:56:45;94583.09;;;27.44;41.49
31337;BME280;22846;42.654;23.314;2022-08-03T04:59:11;94590.25;;;27.51;41.60
31337;BME280;22846;42.654;23.314;2022-08-03T05:01:38;94587.19;;;27.58;41.29
31337;BME280;22846;42.654;23.314;2022-08-03T05:04:04;94590.44;;;27.65;41.25
31337;BME280;22846;42.654;23.314;2022-08-03T05:06:29;94591.34;;;27.71;41.15
31337;BME280;22846;42.654;23.314;2022-08-03T05:08:54;94597.75;;;27.77;41.03
31337;BME280;22846;42.654;23.314;2022-08-03T05:11:20;94601.88;;;27.82;40.91
31337;BME280;22846;42.654;23.314;2022-08-03T05:13:45;94598.50;;;27.87;40.75
31337;BME280;22846;42.654;23.314;2022-08-03T05:16:12;94605.34;;;27.91;40.75
31337;BME280;22846;42.654;23.314;2022-08-03T05:18:38;94608.69;;;27.95;40.67
31337;BME280;22846;42.654;23.314;2022-08-03T05:21:04;94610.84;;;28.00;40.61
31337;BME280;22846;42.654;23.314;2022-08-03T05:23:30;94611.13;;;28.02;40.50
31337;BME280;22846;42.654;23.314;2022-08-03T05:25:55;94612.50;;;28.07;40.46
31337;BME280;22846;42.654;23.314;2022-08-03T05:28:21;94614.31;;;28.10;40.50
31337;BME280;22846;42.654;23.314;2022-08-03T05:30:46;94617.69;;;28.14;40.50
31337;BME280;22846;42.654;23.314;2022-08-03T05:33:12;94616.00;;;28.16;40.55
31337;BME280;22846;42.654;23.314;2022-08-03T05:35:37;94610.50;;;28.16;40.58
31337;BME280;22846;42.654;23.314;2022-08-03T05:38:04;94620.44;;;28.22;40.45
31337;BME280;22846;42.654;23.314;2022-08-03T05:40:30;94618.75;;;28.25;40.48
31337;BME280;22846;42.654;23.314;2022-08-03T05:42:55;94620.56;;;28.28;40.56
31337;BME280;22846;42.654;23.314;2022-08-03T05:45:21;94618.88;;;28.30;40.57
31337;BME280;22846;42.654;23.314;2022-08-03T05:47:47;94628.97;;;28.33;40.64
31337;BME280;22846;42.654;23.314;2022-08-03T05:50:14;94624.53;;;28.36;40.45
31337;BME280;22846;42.654;23.314;2022-08-03T05:52:40;94624.34;;;28.39;40.48
31337;BME280;22846;42.654;23.314;2022-08-03T05:55:07;94622.66;;;28.42;40.71
31337;BME280;22846;42.654;23.314;2022-08-03T05:57:33;94622.97;;;28.44;40.47
31337;BME280;22846;42.654;23.314;2022-08-03T05:59:59;94630.00;;;28.45;40.26
31337;BME280;22846;42.654;23.314;2022-08-03T06:02:26;94622.03;;;28.47;40.47
31337;BME280;22846;42.654;23.314;2022-08-03T06:04:51;94627.81;;;28.49;40.60
31337;BME280;22846;42.654;23.314;2022-08-03T06:07:17;94638.66;;;28.52;40.59
31337;BME280;22846;42.654;23.314;2022-08-03T06:09:42;94626.00;;;28.55;40.68
31337;BME280;22846;42.654;23.314;2022-08-03T06:12:08;94635.28;;;28.57;40.74
31337;BME280;22846;42.654;23.314;2022-08-03T06:14:33;94633.59;;;28.60;40.53
31337;BME280;22846;42.654;23.314;2022-08-03T06:16:58;94629.94;;;28.63;40.49
31337;BME280;22846;42.654;23.314;2022-08-03T06:19:24;94623.94;;;28.64;40.51
31337;BME280;22846;42.654;23.314;2022-08-03T06:21:51;94625.00;;;28.67;40.65
31337;BME280;22846;42.654;23.314;2022-08-03T06:24:17;94635.53;;;28.68;40.66
31337;BME280;22846;42.654;23.314;2022-08-03T06:26:42;94637.84;;;28.70;40.70
31337;BME280;22846;42.654;23.314;2022-08-03T06:29:07;94642.41;;;28.73;40.81
31337;BME280;22846;42.654;23.314;2022-08-03T06:31:33;94635.66;;;28.74;40.64
31337;BME280;22846;42.654;23.314;2022-08-03T06:33:58;94635.97;;;28.76;40.77
31337;BME280;22846;42.654;23.314;2022-08-03T06:36:24;94630.78;;;28.78;40.76
31337;BME280;22846;42.654;23.314;2022-08-03T06:38:56;94629.56;;;28.79;40.87
31337;BME280;22846;42.654;23.314;2022-08-03T06:41:21;94631.09;;;28.80;40.75
31337;BME280;22846;42.654;23.314;2022-08-03T06:43:47;94636.44;;;28.83;40.79
31337;BME280;22846;42.654;23.314;2022-08-03T06:46:12;94628.50;;;28.85;40.44
31337;BME280;22846;42.654;23.314;2022-08-03T06:48:38;94628.00;;;28.87;40.65
31337;BME280;22846;42.654;23.314;2022-08-03T06:51:03;94618.53;;;28.88;40.84
31337;BME280;22846;42.654;23.314;2022-08-03T06:53:28;94625.09;;;28.90;40.52
31337;BME280;22846;42.654;23.314;2022-08-03T06:55:54;94621.13;;;28.91;40.64
31337;BME280;22846;42.654;23.314;2022-08-03T06:58:19;94616.34;;;28.92;40.80
31337;BME280;22846;42.654;23.314;2022-08-03T07:00:45;94620.94;;;28.95;40.83
31337;BME280;22846;42.654;23.314;2022-08-03T07:03:10;94619.72;;;28.96;40.81
31337;BME280;22846;42.654;23.314;2022-08-03T07:05:35;94622.75;;;28.98;40.56
31337;BME280;22846;42.654;23.314;2022-08-03T07:08:01;94614.78;;;29.00;40.55
31337;BME280;22846;42.654;23.314;2022-08-03T07:10:30;94624.56;;;29.01;40.48
31337;BME280;22846;42.654;23.314;2022-08-03T07:12:55;94619.38;;;29.02;40.74
31337;BME280;22846;42.654;23.314;2022-08-03T07:15:20;94620.09;;;29.03;40.33
31337;BME280;22846;42.654;23.314;2022-08-03T07:17:47;94622.41;;;29.04;40.38
31337;BME280;22846;42.654;23.314;2022-08-03T07:20:12;94625.16;;;29.04;40.56
31337;BME280;22846;42.654;23.314;2022-08-03T07:22:39;94626.97;;;29.07;40.45
31337;BME280;22846;42.654;23.314;2022-08-03T07:25:05;94623.00;;;29.08;40.49
31337;BME280;22846;42.654;23.314;2022-08-03T07:27:30;94626.03;;;29.10;40.39
31337;BME280;22846;42.654;23.314;2022-08-03T07:29:57;94634.28;;;29.10;40.40
31337;BME280;22846;42.654;23.314;2022-08-03T07:32:23;94628.31;;;29.12;40.33
31337;BME280;22846;42.654;23.314;2022-08-03T07:34:49;94629.09;;;29.12;40.31
31337;BME280;22846;42.654;23.314;2022-08-03T07:37:14;94636.88;;;29.14;40.33
31337;BME280;22846;42.654;23.314;2022-08-03T07:39:40;94636.44;;;29.15;40.20
31337;BME280;22846;42.654;23.314;2022-08-03T07:42:05;94623.41;;;29.16;40.41
31337;BME280;22846;42.654;23.314;2022-08-03T07:44:31;94629.66;;;29.16;40.13
31337;BME280;22846;42.654;23.314;2022-08-03T07:46:56;94639.75;;;29.19;40.09
31337;BME280;22846;42.654;23.314;2022-08-03T07:49:22;94618.38;;;29.14;39.91
31337;BME280;22846;42.654;23.314;2022-08-03T07:51:47;94633.78;;;29.21;39.97
31337;BME280;22846;42.654;23.314;2022-08-03T07:54:32;94636.06;;;29.22;39.89
31337;BME280;22846;42.654;23.314;2022-08-03T07:56:58;94632.53;;;29.22;39.80
31337;BME280;22846;42.654;23.314;2022-08-03T07:59:23;94636.34;;;29.24;39.61
31337;BME280;22846;42.654;23.314;2022-08-03T08:01:49;94643.38;;;29.25;39.84
31337;BME280;22846;42.654;23.314;2022-08-03T08:04:17;94635.91;;;29.26;39.80
31337;BME280;22846;42.654;23.314;2022-08-03T08:06:42;94631.13;;;29.26;39.89
31337;BME280;22846;42.654;23.314;2022-08-03T08:09:07;94632.66;;;29.27;40.06
31337;BME280;22846;42.654;23.314;2022-08-03T08:11:33;94633.59;;;29.24;40.16
31337;BME280;22846;42.654;23.314;2022-08-03T08:13:58;94638.94;;;29.28;40.07
31337;BME280;22846;42.654;23.314;2022-08-03T08:16:26;94635.72;;;29.29;40.05
31337;BME280;22846;42.654;23.314;2022-08-03T08:18:52;94634.50;;;29.30;40.11
31337;BME280;22846;42.654;23.314;2022-08-03T08:21:17;94638.75;;;29.31;40.12
31337;BME280;22846;42.654;23.314;2022-08-03T08:23:43;94634.78;;;29.32;40.22
31337;BME280;22846;42.654;23.314;2022-08-03T08:26:08;94639.03;;;29.33;40.20
31337;BME280;22846;42.654;23.314;2022-08-03T08:28:34;94631.56;;;29.34;40.28
31337;BME280;22846;42.654;23.314;2022-08-03T08:31:00;94646.06;;;29.34;40.17
31337;BME280;22846;42.654;23.314;2022-08-03T08:33:26;94643.31;;;29.34;40.13
31337;BME280;22846;42.654;23.314;2022-08-03T08:35:52;94634.59;;;29.36;39.92
31337;BME280;22846;42.654;23.314;2022-08-03T08:38:17;94632.63;;;29.36;40.08
31337;BME280;22846;42.654;23.314;2022-08-03T08:40:42;94636.91;;;29.37;40.36
31337;BME280;22846;42.654;23.314;2022-08-03T08:43:08;94632.16;;;29.38;40.22
31337;BME280;22846;42.654;23.314;2022-08-03T08:45:34;94627.44;;;29.38;40.04
31337;BME280;22846;42.654;23.314;2022-08-03T08:48:01;94626.66;;;29.38;40.43
31337;BME280;22846;42.654;23.314;2022-08-03T08:50:27;94628.16;;;29.39;40.11
31337;BME280;22846;42.654;23.314;2022-08-03T08:52:53;94630.47;;;29.40;40.14
31337;BME280;22846;42.654;23.314;2022-08-03T08:55:21;94628.94;;;29.39;39.94
31337;BME280;22846;42.654;23.314;2022-08-03T08:58:01;94624.97;;;29.40;40.08
31337;BME280;22846;42.654;23.314;2022-08-03T09:00:28;94626.03;;;29.43;40.15
31337;BME280;22846;42.654;23.314;2022-08-03T09:02:55;94618.97;;;29.42;40.21
31337;BME280;22846;42.654;23.314;2022-08-03T09:05:20;94620.50;;;29.43;40.27
31337;BME280;22846;42.654;23.314;2022-08-03T09:07:46;94613.00;;;29.43;40.29
31337;BME280;22846;42.654;23.314;2022-08-03T09:10:14;94617.16;;;29.39;39.98
31337;BME280;22846;42.654;23.314;2022-08-03T09:12:45;94613.78;;;29.44;40.12
31337;BME280;22846;42.654;23.314;2022-08-03T09:15:31;94613.78;;;29.44;40.10
31337;BME280;22846;42.654;23.314;2022-08-03T09:17:58;94618.81;;;29.45;40.13
31337;BME280;22846;42.654;23.314;2022-08-03T09:20:27;94616.06;;;29.45;40.08
31337;BME280;22846;42.654;23.314;2022-08-03T09:22:57;94615.31;;;29.45;40.09
31337;BME280;22846;42.654;23.314;2022-08-03T09:25:33;94617.28;;;29.44;40.01
31337;BME280;22846;42.654;23.314;2022-08-03T09:28:10;94614.13;;;29.37;38.38
31337;BME280;22846;42.654;23.314;2022-08-03T09:30:37;94613.28;;;29.22;37.99
31337;BME280;22846;42.654;23.314;2022-08-03T09:33:11;94605.59;;;29.02;38.95
31337;BME280;22846;42.654;23.314;2022-08-03T09:38:10;94618.59;;;28.70;39.34
31337;BME280;22846;42.654;23.314;2022-08-03T09:40:36;94618.00;;;28.57;39.84
31337;BME280;22846;42.654;23.314;2022-08-03T09:43:02;94613.19;;;28.43;40.44
31337;BME280;22846;42.654;23.314;2022-08-03T09:45:27;94608.81;;;28.27;40.14
31337;BME280;22846;42.654;23.314;2022-08-03T09:47:54;94611.41;;;28.22;39.76
31337;BME280;22846;42.654;23.314;2022-08-03T09:50:21;94617.34;;;28.20;40.05
31337;BME280;22846;42.654;23.314;2022-08-03T09:52:46;94609.09;;;28.20;39.52
31337;BME280;22846;42.654;23.314;2022-08-03T09:55:15;94611.72;;;28.24;39.28
31337;BME280;22846;42.654;23.314;2022-08-03T09:57:41;94607.28;;;28.26;38.83
31337;BME280;22846;42.654;23.314;2022-08-03T10:00:12;94604.09;;;28.28;38.86
31337;BME280;22846;42.654;23.314;2022-08-03T10:02:42;94605.88;;;28.31;38.56
31337;BME280;22846;42.654;23.314;2022-08-03T10:05:09;94601.91;;;28.32;38.36
31337;BME280;22846;42.654;23.314;2022-08-03T10:07:48;94605.88;;;28.31;38.37
31337;BME280;22846;42.654;23.314;2022-08-03T10:10:15;94600.56;;;28.27;38.42
31337;BME280;22846;42.654;23.314;2022-08-03T10:12:41;94591.56;;;28.18;37.33
31337;BME280;22846;42.654;23.314;2022-08-03T10:15:08;94596.78;;;28.07;36.36
31337;BME280;22846;42.654;23.314;2022-08-03T10:17:34;94594.03;;;27.98;36.28
31337;BME280;22846;42.654;23.314;2022-08-03T10:20:00;94592.09;;;27.90;36.44
31337;BME280;22846;42.654;23.314;2022-08-03T10:22:30;94590.09;;;27.81;36.60
31337;BME280;22846;42.654;23.314;2022-08-03T10:25:06;94593.63;;;27.73;38.19
31337;BME280;22846;42.654;23.314;2022-08-03T10:27:40;94596.25;;;27.67;38.58
31337;BME280;22846;42.654;23.314;2022-08-03T10:30:07;94594.25;;;27.68;38.80
31337;BME280;22846;42.654;23.314;2022-08-03T10:35:08;94575.63;;;27.72;37.93
31337;BME280;22846;42.654;23.314;2022-08-03T10:37:40;94586.16;;;27.73;37.79
31337;BME280;22846;42.654;23.314;2022-08-03T10:40:07;94582.66;;;27.73;38.38
31337;BME280;22846;42.654;23.314;2022-08-03T10:42:34;94585.25;;;27.76;38.63
31337;BME280;22846;42.654;23.314;2022-08-03T10:45:06;94584.91;;;27.83;38.92
31337;BME280;22846;42.654;23.314;2022-08-03T10:47:34;94580.16;;;27.93;38.86
31337;BME280;22846;42.654;23.314;2022-08-03T10:50:00;94569.16;;;28.02;38.84
31337;BME280;22846;42.654;23.314;2022-08-03T10:52:26;94577.84;;;28.09;38.95
31337;BME280;22846;42.654;23.314;2022-08-03T10:54:52;94574.94;;;28.21;38.88
31337;BME280;22846;42.654;23.314;2022-08-03T11:00:08;94580.06;;;28.37;38.84
31337;BME280;22846;42.654;23.314;2022-08-03T11:03:06;94573.47;;;28.44;38.74
31337;BME280;22846;42.654;23.314;2022-08-03T11:05:45;94574.38;;;28.50;38.83
31337;BME280;22846;42.654;23.314;2022-08-03T11:08:18;94572.22;;;28.54;38.68
31337;BME280;22846;42.654;23.314;2022-08-03T11:10:44;94570.34;;;28.60;38.49
31337;BME280;22846;42.654;23.314;2022-08-03T11:13:17;94572.44;;;28.65;38.58
31337;BME280;22846;42.654;23.314;2022-08-03T11:15:48;94562.06;;;28.69;38.64
31337;BME280;22846;42.654;23.314;2022-08-03T11:18:15;94561.13;;;28.72;38.63
31337;BME280;22846;42.654;23.314;2022-08-03T11:23:13;94554.09;;;28.80;38.52
31337;BME280;22846;42.654;23.314;2022-08-03T11:26:07;94549.63;;;28.82;38.83
31337;BME280;22846;42.654;23.314;2022-08-03T11:28:33;94557.72;;;28.86;38.83
31337;BME280;22846;42.654;23.314;2022-08-03T11:36:30;94536.88;;;28.94;38.90
31337;BME280;22846;42.654;23.314;2022-08-03T11:39:12;94533.63;;;28.95;38.94
31337;BME280;22846;42.654;23.314;2022-08-03T11:41:37;94533.19;;;28.97;38.91
31337;BME280;22846;42.654;23.314;2022-08-03T11:44:03;94534.97;;;29.00;38.99
31337;BME280;22846;42.654;23.314;2022-08-03T11:46:36;94542.00;;;29.01;38.92
31337;BME280;22846;42.654;23.314;2022-08-03T11:49:05;94532.53;;;29.02;38.83
31337;BME280;22846;42.654;23.314;2022-08-03T11:51:33;94526.09;;;29.04;39.09
31337;BME280;22846;42.654;23.314;2022-08-03T11:54:04;94530.38;;;29.05;38.96
31337;BME280;22846;42.654;23.314;2022-08-03T11:56:47;94527.63;;;29.05;38.93
31337;BME280;22846;42.654;23.314;2022-08-03T11:59:13;94525.44;;;29.09;38.87
31337;BME280;22846;42.654;23.314;2022-08-03T12:01:38;94529.72;;;29.10;38.88
31337;BME280;22846;42.654;23.314;2022-08-03T12:04:05;94521.44;;;29.10;39.18
31337;BME280;22846;42.654;23.314;2022-08-03T12:06:31;94536.25;;;29.13;39.27
31337;BME280;22846;42.654;23.314;2022-08-03T12:09:16;94512.16;;;29.08;38.93
31337;BME280;22846;42.654;23.314;2022-08-03T12:11:42;94529.06;;;29.15;39.28
31337;BME280;22846;42.654;23.314;2022-08-03T12:14:15;94514.53;;;29.15;39.16
31337;BME280;22846;42.654;23.314;2022-08-03T12:16:46;94518.34;;;29.17;39.27
31337;BME280;22846;42.654;23.314;2022-08-03T12:19:12;94515.13;;;29.19;39.11
31337;BME280;22846;42.654;23.314;2022-08-03T12:21:46;94515.59;;;29.17;39.18
31337;BME280;22846;42.654;23.314;2022-08-03T12:24:12;94517.41;;;29.20;39.23
31337;BME280;22846;42.654;23.314;2022-08-03T12:26:45;94514.16;;;29.22;39.28
31337;BME280;22846;42.654;23.314;2022-08-03T12:29:17;94513.72;;;29.23;39.08
31337;BME280;22846;42.654;23.314;2022-08-03T12:31:43;94507.63;;;29.19;39.33
31337;BME280;22846;42.654;23.314;2022-08-03T12:34:09;94514.00;;;29.25;39.26
31337;BME280;22846;42.654;23.314;2022-08-03T12:36:35;94510.19;;;29.23;39.36
31337;BME280;22846;42.654;23.314;2022-08-03T12:39:02;94517.03;;;29.27;39.51
31337;BME280;22846;42.654;23.314;2022-08-03T12:41:33;94513.06;;;29.28;39.16
31337;BME280;22846;42.654;23.314;2022-08-03T12:43:59;94506.31;;;29.29;39.35
31337;BME280;22846;42.654;23.314;2022-08-03T12:46:39;94511.81;;;29.29;39.71
31337;BME280;22846;42.654;23.314;2022-08-03T12:49:10;94499.00;;;29.26;39.53
31337;BME280;22846;42.654;23.314;2022-08-03T12:51:54;94511.63;;;29.33;39.49
31337;BME280;22846;42.654;23.314;2022-08-03T12:54:27;94506.88;;;29.33;39.56
31337;BME280;22846;42.654;23.314;2022-08-03T12:57:03;94502.16;;;29.34;39.35
31337;BME280;22846;42.654;23.314;2022-08-03T12:59:34;94505.19;;;29.36;39.62
31337;BME280;22846;42.654;23.314;2022-08-03T13:02:00;94493.41;;;29.35;39.53
31337;BME280;22846;42.654;23.314;2022-08-03T13:07:02;94499.25;;;29.37;39.42
31337;BME280;22846;42.654;23.314;2022-08-03T13:09:29;94496.00;;;29.39;39.62
31337;BME280;22846;42.654;23.314;2022-08-03T13:12:26;94487.75;;;29.39;39.62
31337;BME280;22846;42.654;23.314;2022-08-03T13:14:55;94487.47;;;29.37;39.02
31337;BME280;22846;42.654;23.314;2022-08-03T13:17:21;94485.22;;;29.26;37.98
31337;BME280;22846;42.654;23.314;2022-08-03T13:19:48;94480.66;;;29.09;38.30
31337;BME280;22846;42.654;23.314;2022-08-03T13:24:44;94490.47;;;28.78;38.72
31337;BME280;22846;42.654;23.314;2022-08-03T13:27:11;94488.72;;;28.66;38.11
31337;BME280;22846;42.654;23.314;2022-08-03T13:29:37;94484.22;;;28.54;37.56